sensor_id;sensor_type;location;lat;lon;timestamp;pressure;altitude;pressure_sealevel;temperature;humidity
46045;BME280;31781;54.094;13.428;2023-07-31T00:01:48;100944.28;;;17.04;67.23
46045;BME280;31781;54.094;13.428;2023-07-31T00:03:49;100944.56;;;17.03;67.09
46045;BME280;31781;54.094;13.428;2023-07-31T00:05:51;100947.53;;;17.01;66.75
46045;BME280;31781;54.094;13.428;2023-07-31T00:07:53;100941.72;;;16.98;66.71
46045;BME280;31781;54.094;13.428;2023-07-31T00:09:55;100943.63;;;16.97;67.00
46045;BME280;31781;54.094;13.428;2023-07-31T00:11:58;100941.38;;;16.94;66.53
46045;BME280;31781;54.094;13.428;2023-07-31T00:14:00;100941.88;;;16.91;66.63
46045;BME280;31781;54.094;13.428;2023-07-31T00:16:02;100941.53;;;16.88;66.25
46045;BME280;31781;54.094;13.428;2023-07-31T00:18:03;100943.66;;;16.86;66.50
46045;BME280;31781;54.094;13.428;2023-07-31T00:20:06;100932.31;;;16.82;66.17
46045;BME280;31781;54.094;13.428;2023-07-31T00:22:08;100936.41;;;16.80;66.16
46045;BME280;31781;54.094;13.428;2023-07-31T00:24:10;100930.56;;;16.76;66.29
46045;BME280;31781;54.094;13.428;2023-07-31T00:26:11;100928.31;;;16.73;65.98
46045;BME280;31781;54.094;13.428;2023-07-31T00:28:14;100934.06;;;16.72;66.01
46045;BME280;31781;54.094;13.428;2023-07-31T00:30:16;100933.72;;;16.68;66.48
46045;BME280;31781;54.094;13.428;2023-07-31T00:32:18;100939.44;;;16.67;66.02
46045;BME280;31781;54.094;13.428;2023-07-31T00:34:20;100941.84;;;16.63;66.30
46045;BME280;31781;54.094;13.428;2023-07-31T00:36:21;100927.75;;;16.60;66.37
46045;BME280;31781;54.094;13.428;2023-07-31T00:38:23;100927.19;;;16.58;66.31
46045;BME280;31781;54.094;13.428;2023-07-31T00:40:25;100927.63;;;16.54;66.51
46045;BME280;31781;54.094;13.428;2023-07-31T00:42:27;100929.78;;;16.52;66.43
46045;BME280;31781;54.094;13.428;2023-07-31T00:44:30;100920.97;;;16.50;66.23
46045;BME280;31781;54.094;13.428;2023-07-31T00:46:31;100916.81;;;16.48;66.07
46045;BME280;31781;54.094;13.428;2023-07-31T00:48:33;100917.03;;;16.46;66.18
46045;BME280;31781;54.094;13.428;2023-07-31T00:50:36;100920.28;;;16.43;66.14
46045;BME280;31781;54.094;13.428;2023-07-31T00:52:38;100923.25;;;16.42;66.36
46045;BME280;31781;54.094;13.428;2023-07-31T00:54:39;100913.59;;;16.39;66.57
46045;BME280;31781;54.094;13.428;2023-07-31T00:56:41;100909.44;;;16.37;66.51
46045;BME280;31781;54.094;13.428;2023-07-31T00:58:46;100923.16;;;16.37;66.42
46045;BME280;31781;54.094;13.428;2023-07-31T01:00:49;100919.81;;;16.35;66.22
46045;BME280;31781;54.094;13.428;2023-07-31T01:02:51;100911.78;;;16.33;66.17
46045;BME280;31781;54.094;13.428;2023-07-31T01:04:53;100905.72;;;16.31;66.19
46045;BME280;31781;54.094;13.428;2023-07-31T01:07:00;100913.13;;;16.31;66.65
46045;BME280;31781;54.094;13.428;2023-07-31T01:09:10;100908.97;;;16.28;66.91
46045;BME280;31781;54.094;13.428;2023-07-31T01:11:15;100908.63;;;16.25;67.13
46045;BME280;31781;54.094;13.428;2023-07-31T01:13:19;100912.66;;;16.22;67.09
46045;BME280;31781;54.094;13.428;2023-07-31T01:15:21;100913.16;;;16.19;67.31
46045;BME280;31781;54.094;13.428;2023-07-31T01:17:24;100908.75;;;16.18;67.68
46045;BME280;31781;54.094;13.428;2023-07-31T01:19:26;100907.31;;;16.16;67.99
46045;BME280;31781;54.094;13.428;2023-07-31T01:24:20;100905.06;;;16.13;66.48
46045;BME280;31781;54.094;13.428;2023-07-31T01:26:28;100905.53;;;16.10;67.23
46045;BME280;31781;54.094;13.428;2023-07-31T01:28:39;100902.44;;;16.06;67.68
46045;BME280;31781;54.094;13.428;2023-07-31T01:30:45;100901.25;;;16.02;68.20
46045;BME280;31781;54.094;13.428;2023-07-31T01:32:49;100900.91;;;15.98;68.08
46045;BME280;31781;54.094;13.428;2023-07-31T01:34:53;100902.22;;;15.96;68.33
46045;BME280;31781;54.094;13.428;2023-07-31T01:36:56;100902.47;;;15.94;68.25
46045;BME280;31781;54.094;13.428;2023-07-31T01:38:58;100898.28;;;15.92;68.39
46045;BME280;31781;54.094;13.428;2023-07-31T01:41:00;100898.53;;;15.90;68.66
46045;BME280;31781;54.094;13.428;2023-07-31T01:43:03;100901.75;;;15.87;68.65
46045;BME280;31781;54.094;13.428;2023-07-31T01:45:06;100894.59;;;15.86;68.40
46045;BME280;31781;54.094;13.428;2023-07-31T01:47:08;100886.63;;;15.85;68.85
46045;BME280;31781;54.094;13.428;2023-07-31T01:49:09;100887.91;;;15.82;68.52
46045;BME280;31781;54.094;13.428;2023-07-31T01:51:11;100890.91;;;15.81;68.30
46045;BME280;31781;54.094;13.428;2023-07-31T01:53:13;100890.28;;;15.79;68.64
46045;BME280;31781;54.094;13.428;2023-07-31T01:55:14;100889.72;;;15.77;68.76
46045;BME280;31781;54.094;13.428;2023-07-31T01:57:16;100885.28;;;15.76;68.51
46045;BME280;31781;54.094;13.428;2023-07-31T01:59:19;100883.63;;;15.75;68.41
46045;BME280;31781;54.094;13.428;2023-07-31T02:01:21;100883.03;;;15.73;68.31
46045;BME280;31781;54.094;13.428;2023-07-31T02:03:23;100870.66;;;15.70;68.68
46045;BME280;31781;54.094;13.428;2023-07-31T02:05:25;100877.41;;;15.68;68.72
46045;BME280;31781;54.094;13.428;2023-07-31T02:07:26;100884.00;;;15.67;68.31
46045;BME280;31781;54.094;13.428;2023-07-31T02:09:28;100886.97;;;15.65;68.80
46045;BME280;31781;54.094;13.428;2023-07-31T02:11:30;100886.34;;;15.63;68.58
46045;BME280;31781;54.094;13.428;2023-07-31T02:13:32;100888.53;;;15.61;68.72
46045;BME280;31781;54.094;13.428;2023-07-31T02:15:36;100893.41;;;15.59;68.08
46045;BME280;31781;54.094;13.428;2023-07-31T02:17:38;100890.91;;;15.57;68.62
46045;BME280;31781;54.094;13.428;2023-07-31T02:19:40;100885.66;;;15.56;68.83
46045;BME280;31781;54.094;13.428;2023-07-31T02:21:42;100894.13;;;15.54;68.36
46045;BME280;31781;54.094;13.428;2023-07-31T02:23:43;100894.34;;;15.53;68.33
46045;BME280;31781;54.094;13.428;2023-07-31T02:25:46;100887.22;;;15.52;68.70
46045;BME280;31781;54.094;13.428;2023-07-31T02:27:48;100890.19;;;15.50;68.54
46045;BME280;31781;54.094;13.428;2023-07-31T02:29:49;100887.66;;;15.49;68.38
46045;BME280;31781;54.094;13.428;2023-07-31T02:31:52;100885.16;;;15.47;68.71
46045;BME280;31781;54.094;13.428;2023-07-31T02:33:55;100885.38;;;15.46;68.53
46045;BME280;31781;54.094;13.428;2023-07-31T02:35:56;100888.38;;;15.44;68.41
46045;BME280;31781;54.094;13.428;2023-07-31T02:37:58;100884.19;;;15.42;68.47
46045;BME280;31781;54.094;13.428;2023-07-31T02:40:00;100886.91;;;15.42;68.73
46045;BME280;31781;54.094;13.428;2023-07-31T02:42:02;100880.84;;;15.40;68.76
46045;BME280;31781;54.094;13.428;2023-07-31T02:44:04;100878.34;;;15.38;68.69
46045;BME280;31781;54.094;13.428;2023-07-31T02:46:05;100878.34;;;15.38;68.43
46045;BME280;31781;54.094;13.428;2023-07-31T02:48:09;100875.00;;;15.36;68.76
46045;BME280;31781;54.094;13.428;2023-07-31T02:50:10;100868.91;;;15.34;69.06
46045;BME280;31781;54.094;13.428;2023-07-31T02:52:12;100868.34;;;15.32;68.95
46045;BME280;31781;54.094;13.428;2023-07-31T02:54:14;100862.22;;;15.30;68.80
46045;BME280;31781;54.094;13.428;2023-07-31T02:56:15;100859.75;;;15.29;68.95
46045;BME280;31781;54.094;13.428;2023-07-31T02:58:17;100864.63;;;15.27;69.08
46045;BME280;31781;54.094;13.428;2023-07-31T03:00:19;100862.97;;;15.26;69.22
46045;BME280;31781;54.094;13.428;2023-07-31T03:02:21;100861.28;;;15.25;68.94
46045;BME280;31781;54.094;13.428;2023-07-31T03:04:24;100859.88;;;15.22;68.85
46045;BME280;31781;54.094;13.428;2023-07-31T03:06:26;100850.81;;;15.22;68.88
46045;BME280;31781;54.094;13.428;2023-07-31T03:08:27;100840.91;;;15.21;68.77
46045;BME280;31781;54.094;13.428;2023-07-31T03:10:29;100850.19;;;15.20;69.03
46045;BME280;31781;54.094;13.428;2023-07-31T03:12:31;100846.88;;;15.18;68.99
46045;BME280;31781;54.094;13.428;2023-07-31T03:14:33;100850.66;;;15.17;69.27
46045;BME280;31781;54.094;13.428;2023-07-31T03:16:34;100848.16;;;15.15;69.38
46045;BME280;31781;54.094;13.428;2023-07-31T03:18:36;100851.16;;;15.14;69.40
46045;BME280;31781;54.094;13.428;2023-07-31T03:20:43;100850.53;;;15.11;68.89
46045;BME280;31781;54.094;13.428;2023-07-31T03:22:44;100843.41;;;15.10;69.67
46045;BME280;31781;54.094;13.428;2023-07-31T03:24:46;100856.25;;;15.10;69.42
46045;BME280;31781;54.094;13.428;2023-07-31T03:26:48;100854.84;;;15.07;69.82
46045;BME280;31781;54.094;13.428;2023-07-31T03:28:50;100842.19;;;15.06;69.88
46045;BME280;31781;54.094;13.428;2023-07-31T03:30:51;100846.84;;;15.06;70.16
46045;BME280;31781;54.094;13.428;2023-07-31T03:32:53;100851.50;;;15.05;70.19
46045;BME280;31781;54.094;13.428;2023-07-31T03:34:55;100853.38;;;15.05;70.37
46045;BME280;31781;54.094;13.428;2023-07-31T03:36:58;100859.94;;;15.04;69.87
46045;BME280;31781;54.094;13.428;2023-07-31T03:38:59;100862.66;;;15.04;69.96
46045;BME280;31781;54.094;13.428;2023-07-31T03:41:01;100861.88;;;15.03;69.96
46045;BME280;31781;54.094;13.428;2023-07-31T03:43:04;100865.41;;;15.04;70.26
46045;BME280;31781;54.094;13.428;2023-07-31T03:45:08;100862.66;;;15.04;69.96
46045;BME280;31781;54.094;13.428;2023-07-31T03:47:10;100858.03;;;15.04;70.46
46045;BME280;31781;54.094;13.428;2023-07-31T03:49:12;100851.72;;;15.04;69.92
46045;BME280;31781;54.094;13.428;2023-07-31T03:51:13;100858.88;;;15.05;70.57
46045;BME280;31781;54.094;13.428;2023-07-31T03:53:17;100847.44;;;15.08;70.51
46045;BME280;31781;54.094;13.428;2023-07-31T03:55:18;100855.56;;;15.15;69.90
46045;BME280;31781;54.094;13.428;2023-07-31T03:57:20;100845.91;;;15.24;69.96
46045;BME280;31781;54.094;13.428;2023-07-31T03:59:22;100846.16;;;15.34;69.75
46045;BME280;31781;54.094;13.428;2023-07-31T04:01:23;100844.25;;;15.34;70.05
46045;BME280;31781;54.094;13.428;2023-07-31T04:03:25;100840.06;;;15.32;69.77
46045;BME280;31781;54.094;13.428;2023-07-31T04:05:29;100835.06;;;15.29;69.67
46045;BME280;31781;54.094;13.428;2023-07-31T04:07:31;100833.75;;;15.31;70.37
46045;BME280;31781;54.094;13.428;2023-07-31T04:09:34;100834.38;;;15.33;69.62
46045;BME280;31781;54.094;13.428;2023-07-31T04:11:36;100827.22;;;15.32;69.92
46045;BME280;31781;54.094;13.428;2023-07-31T04:13:38;100831.63;;;15.33;70.31
46045;BME280;31781;54.094;13.428;2023-07-31T04:15:40;100832.44;;;15.34;70.42
46045;BME280;31781;54.094;13.428;2023-07-31T04:17:41;100832.22;;;15.35;70.58
46045;BME280;31781;54.094;13.428;2023-07-31T04:19:43;100839.13;;;15.38;70.56
46045;BME280;31781;54.094;13.428;2023-07-31T04:21:45;100827.91;;;15.39;70.36
46045;BME280;31781;54.094;13.428;2023-07-31T04:23:49;100832.09;;;15.42;70.78
46045;BME280;31781;54.094;13.428;2023-07-31T04:25:52;100824.22;;;15.45;71.05
46045;BME280;31781;54.094;13.428;2023-07-31T04:27:54;100819.13;;;15.49;71.10
46045;BME280;31781;54.094;13.428;2023-07-31T04:29:56;100822.22;;;15.52;71.26
46045;BME280;31781;54.094;13.428;2023-07-31T04:31:58;100826.16;;;15.56;71.50
46045;BME280;31781;54.094;13.428;2023-07-31T04:34:00;100825.44;;;15.61;71.53
46045;BME280;31781;54.094;13.428;2023-07-31T04:36:01;100823.66;;;15.67;72.02
46045;BME280;31781;54.094;13.428;2023-07-31T04:38:03;100831.13;;;15.71;71.94
46045;BME280;31781;54.094;13.428;2023-07-31T04:40:06;100825.78;;;15.76;71.79
46045;BME280;31781;54.094;13.428;2023-07-31T04:42:09;100823.16;;;15.81;71.78
46045;BME280;31781;54.094;13.428;2023-07-31T04:44:11;100828.72;;;15.86;71.71
46045;BME280;31781;54.094;13.428;2023-07-31T04:46:12;100823.38;;;15.91;71.58
46045;BME280;31781;54.094;13.428;2023-07-31T04:48:14;100818.81;;;15.97;72.00
46045;BME280;31781;54.094;13.428;2023-07-31T04:50:16;100807.09;;;16.01;71.75
46045;BME280;31781;54.094;13.428;2023-07-31T04:52:18;100812.44;;;16.08;71.65
46045;BME280;31781;54.094;13.428;2023-07-31T04:54:19;100806.50;;;16.11;71.65
46045;BME280;31781;54.094;13.428;2023-07-31T04:56:21;100804.09;;;16.15;71.34
46045;BME280;31781;54.094;13.428;2023-07-31T04:58:24;100805.25;;;16.19;71.63
46045;BME280;31781;54.094;13.428;2023-07-31T05:00:26;100801.19;;;16.21;71.63
46045;BME280;31781;54.094;13.428;2023-07-31T05:02:27;100801.53;;;16.25;71.26
46045;BME280;31781;54.094;13.428;2023-07-31T05:04:29;100793.66;;;16.28;71.03
46045;BME280;31781;54.094;13.428;2023-07-31T05:06:30;100790.63;;;16.30;71.44
46045;BME280;31781;54.094;13.428;2023-07-31T05:08:32;100781.94;;;16.33;71.39
46045;BME280;31781;54.094;13.428;2023-07-31T05:10:34;100792.41;;;16.36;71.71
46045;BME280;31781;54.094;13.428;2023-07-31T05:12:35;100786.44;;;16.39;71.56
46045;BME280;31781;54.094;13.428;2023-07-31T05:14:38;100778.75;;;16.41;71.68
46045;BME280;31781;54.094;13.428;2023-07-31T05:16:40;100786.53;;;16.44;71.80
46045;BME280;31781;54.094;13.428;2023-07-31T05:18:43;100782.44;;;16.46;71.48
46045;BME280;31781;54.094;13.428;2023-07-31T05:20:44;100776.47;;;16.49;71.78
46045;BME280;31781;54.094;13.428;2023-07-31T05:22:46;100779.81;;;16.51;71.80
46045;BME280;31781;54.094;13.428;2023-07-31T05:24:48;100770.22;;;16.54;71.78
46045;BME280;31781;54.094;13.428;2023-07-31T05:26:50;100776.09;;;16.58;71.85
46045;BME280;31781;54.094;13.428;2023-07-31T05:28:52;100777.28;;;16.62;72.00
46045;BME280;31781;54.094;13.428;2023-07-31T05:30:59;100776.53;;;16.66;71.11
46045;BME280;31781;54.094;13.428;2023-07-31T05:33:01;100786.19;;;16.69;71.79
46045;BME280;31781;54.094;13.428;2023-07-31T05:35:04;100778.50;;;16.71;71.42
46045;BME280;31781;54.094;13.428;2023-07-31T05:37:06;100777.19;;;16.73;71.75
46045;BME280;31781;54.094;13.428;2023-07-31T05:39:11;100774.78;;;16.77;71.72
46045;BME280;31781;54.094;13.428;2023-07-31T05:41:13;100766.28;;;16.78;72.09
46045;BME280;31781;54.094;13.428;2023-07-31T05:43:16;100773.78;;;16.83;71.68
46045;BME280;31781;54.094;13.428;2023-07-31T05:45:18;100779.03;;;16.84;72.13
46045;BME280;31781;54.094;13.428;2023-07-31T05:47:22;100776.63;;;16.88;71.94
46045;BME280;31781;54.094;13.428;2023-07-31T05:49:24;100776.34;;;16.89;71.63
46045;BME280;31781;54.094;13.428;2023-07-31T05:51:25;100777.53;;;16.93;72.15
46045;BME280;31781;54.094;13.428;2023-07-31T05:53:27;100775.38;;;16.95;71.56
46045;BME280;31781;54.094;13.428;2023-07-31T05:55:29;100769.38;;;16.98;71.81
46045;BME280;31781;54.094;13.428;2023-07-31T05:57:30;100760.84;;;17.00;71.52
46045;BME280;31781;54.094;13.428;2023-07-31T05:59:32;100766.97;;;17.02;71.66
46045;BME280;31781;54.094;13.428;2023-07-31T06:01:33;100764.53;;;17.06;71.80
46045;BME280;31781;54.094;13.428;2023-07-31T06:03:37;100767.63;;;17.09;71.69
46045;BME280;31781;54.094;13.428;2023-07-31T06:05:38;100762.69;;;17.11;71.74
46045;BME280;31781;54.094;13.428;2023-07-31T06:07:40;100761.94;;;17.16;72.00
46045;BME280;31781;54.094;13.428;2023-07-31T06:09:42;100756.75;;;17.19;72.32
46045;BME280;31781;54.094;13.428;2023-07-31T06:11:44;100759.00;;;17.22;71.88
46045;BME280;31781;54.094;13.428;2023-07-31T06:13:46;100761.84;;;17.27;71.66
46045;BME280;31781;54.094;13.428;2023-07-31T06:15:47;100753.91;;;17.31;71.67
46045;BME280;31781;54.094;13.428;2023-07-31T06:17:49;100756.16;;;17.34;72.10
46045;BME280;31781;54.094;13.428;2023-07-31T06:19:52;100747.97;;;17.39;71.85
46045;BME280;31781;54.094;13.428;2023-07-31T06:21:53;100749.97;;;17.43;71.97
46045;BME280;31781;54.094;13.428;2023-07-31T06:23:55;100744.53;;;17.48;71.78
46045;BME280;31781;54.094;13.428;2023-07-31T06:25:57;100744.00;;;17.51;71.68
46045;BME280;31781;54.094;13.428;2023-07-31T06:27:59;100739.66;;;17.56;72.00
46045;BME280;31781;54.094;13.428;2023-07-31T06:30:01;100746.38;;;17.60;71.51
46045;BME280;31781;54.094;13.428;2023-07-31T06:32:03;100753.84;;;17.64;71.29
46045;BME280;31781;54.094;13.428;2023-07-31T06:34:05;100757.78;;;17.68;71.40
46045;BME280;31781;54.094;13.428;2023-07-31T06:36:08;100751.50;;;17.73;71.72
46045;BME280;31781;54.094;13.428;2023-07-31T06:38:09;100751.53;;;17.78;71.30
46045;BME280;31781;54.094;13.428;2023-07-31T06:40:11;100750.78;;;17.82;71.44
46045;BME280;31781;54.094;13.428;2023-07-31T06:42:13;100748.09;;;17.87;70.77
46045;BME280;31781;54.094;13.428;2023-07-31T06:44:14;100749.81;;;17.93;71.23
46045;BME280;31781;54.094;13.428;2023-07-31T06:46:16;100748.22;;;17.97;70.90
46045;BME280;31781;54.094;13.428;2023-07-31T06:48:18;100751.03;;;18.03;70.88
46045;BME280;31781;54.094;13.428;2023-07-31T06:50:19;100745.84;;;18.06;71.31
46045;BME280;31781;54.094;13.428;2023-07-31T06:52:22;100747.00;;;18.10;71.15
46045;BME280;31781;54.094;13.428;2023-07-31T06:54:24;100739.06;;;18.14;71.01
46045;BME280;31781;54.094;13.428;2023-07-31T06:56:26;100736.59;;;18.17;70.40
46045;BME280;31781;54.094;13.428;2023-07-31T06:58:27;100735.00;;;18.21;70.87
46045;BME280;31781;54.094;13.428;2023-07-31T07:00:29;100743.00;;;18.23;70.32
46045;BME280;31781;54.094;13.428;2023-07-31T07:02:31;100742.47;;;18.26;69.96
46045;BME280;31781;54.094;13.428;2023-07-31T07:04:33;100740.31;;;18.28;69.64
46045;BME280;31781;54.094;13.428;2023-07-31T07:06:34;100738.09;;;18.30;69.77
46045;BME280;31781;54.094;13.428;2023-07-31T07:08:37;100734.25;;;18.31;70.31
46045;BME280;31781;54.094;13.428;2023-07-31T07:10:39;100743.91;;;18.33;69.98
46045;BME280;31781;54.094;13.428;2023-07-31T07:12:41;100730.16;;;18.33;69.25
46045;BME280;31781;54.094;13.428;2023-07-31T07:14:43;100729.06;;;18.34;69.06
46045;BME280;31781;54.094;13.428;2023-07-31T07:16:44;100727.97;;;18.35;69.33
46045;BME280;31781;54.094;13.428;2023-07-31T07:18:46;100727.97;;;18.35;69.49
46045;BME280;31781;54.094;13.428;2023-07-31T07:21:03;100727.69;;;18.37;69.33
46045;BME280;31781;54.094;13.428;2023-07-31T07:23:04;100716.97;;;18.35;69.30
46045;BME280;31781;54.094;13.428;2023-07-31T07:25:09;100717.78;;;18.36;69.07
46045;BME280;31781;54.094;13.428;2023-07-31T07:27:10;100715.59;;;18.38;69.29
46045;BME280;31781;54.094;13.428;2023-07-31T07:29:12;100716.44;;;18.38;68.82
46045;BME280;31781;54.094;13.428;2023-07-31T07:31:13;100714.22;;;18.40;69.01
46045;BME280;31781;54.094;13.428;2023-07-31T07:33:15;100712.31;;;18.41;69.25
46045;BME280;31781;54.094;13.428;2023-07-31T07:35:17;100715.66;;;18.43;68.83
46045;BME280;31781;54.094;13.428;2023-07-31T07:37:18;100702.19;;;18.46;69.16
46045;BME280;31781;54.094;13.428;2023-07-31T07:39:20;100698.06;;;18.49;68.86
46045;BME280;31781;54.094;13.428;2023-07-31T07:41:23;100696.47;;;18.53;69.36
46045;BME280;31781;54.094;13.428;2023-07-31T07:43:25;100692.38;;;18.56;68.57
46045;BME280;31781;54.094;13.428;2023-07-31T07:45:27;100698.19;;;18.59;68.65
46045;BME280;31781;54.094;13.428;2023-07-31T07:47:28;100692.16;;;18.62;68.94
46045;BME280;31781;54.094;13.428;2023-07-31T07:49:30;100698.78;;;18.66;68.75
46045;BME280;31781;54.094;13.428;2023-07-31T07:51:32;100697.16;;;18.70;68.66
46045;BME280;31781;54.094;13.428;2023-07-31T07:53:33;100697.47;;;18.74;68.43
46045;BME280;31781;54.094;13.428;2023-07-31T07:55:35;100697.53;;;18.79;68.04
46045;BME280;31781;54.094;13.428;2023-07-31T07:57:38;100695.66;;;18.84;68.45
46045;BME280;31781;54.094;13.428;2023-07-31T07:59:40;100686.84;;;18.87;67.56
46045;BME280;31781;54.094;13.428;2023-07-31T08:01:42;100686.03;;;18.92;66.73
46045;BME280;31781;54.094;13.428;2023-07-31T08:03:43;100690.75;;;18.96;66.78
46045;BME280;31781;54.094;13.428;2023-07-31T08:05:45;100679.75;;;19.02;66.23
46045;BME280;31781;54.094;13.428;2023-07-31T08:07:47;100687.25;;;19.06;66.18
46045;BME280;31781;54.094;13.428;2023-07-31T08:09:48;100689.47;;;19.09;65.74
46045;BME280;31781;54.094;13.428;2023-07-31T08:11:50;100695.00;;;19.14;65.59
46045;BME280;31781;54.094;13.428;2023-07-31T08:13:53;100680.69;;;19.17;66.86
46045;BME280;31781;54.094;13.428;2023-07-31T08:15:54;100676.84;;;19.23;65.68
46045;BME280;31781;54.094;13.428;2023-07-31T08:17:56;100688.75;;;19.29;64.85
46045;BME280;31781;54.094;13.428;2023-07-31T08:19:58;100667.78;;;19.33;64.80
46045;BME280;31781;54.094;13.428;2023-07-31T08:22:00;100676.94;;;19.38;65.69
46045;BME280;31781;54.094;13.428;2023-07-31T08:24:02;100670.34;;;19.44;65.58
46045;BME280;31781;54.094;13.428;2023-07-31T08:26:03;100664.88;;;19.50;64.57
46045;BME280;31781;54.094;13.428;2023-07-31T08:28:06;100663.78;;;19.56;63.98
46045;BME280;31781;54.094;13.428;2023-07-31T08:30:11;100670.72;;;19.63;64.79
46045;BME280;31781;54.094;13.428;2023-07-31T08:32:13;100661.38;;;19.69;63.81
46045;BME280;31781;54.094;13.428;2023-07-31T08:34:14;100653.38;;;19.78;64.09
46045;BME280;31781;54.094;13.428;2023-07-31T08:36:16;100655.88;;;19.84;64.37
46045;BME280;31781;54.094;13.428;2023-07-31T08:38:18;100663.06;;;19.90;64.87
46045;BME280;31781;54.094;13.428;2023-07-31T08:40:19;100658.13;;;19.98;63.33
46045;BME280;31781;54.094;13.428;2023-07-31T08:42:21;100658.69;;;20.05;63.09
46045;BME280;31781;54.094;13.428;2023-07-31T08:44:23;100655.66;;;20.11;63.50
46045;BME280;31781;54.094;13.428;2023-07-31T08:46:26;100654.56;;;20.17;63.47
46045;BME280;31781;54.094;13.428;2023-07-31T08:48:29;100660.91;;;20.23;62.76
46045;BME280;31781;54.094;13.428;2023-07-31T08:50:33;100649.31;;;20.26;62.53
46045;BME280;31781;54.094;13.428;2023-07-31T08:52:35;100654.88;;;20.31;62.00
46045;BME280;31781;54.094;13.428;2023-07-31T08:54:36;100647.97;;;20.33;62.37
46045;BME280;31781;54.094;13.428;2023-07-31T08:56:39;100649.38;;;20.36;62.00
46045;BME280;31781;54.094;13.428;2023-07-31T08:58:42;100649.91;;;20.38;62.23
46045;BME280;31781;54.094;13.428;2023-07-31T09:00:46;100642.72;;;20.42;61.25
46045;BME280;31781;54.094;13.428;2023-07-31T09:02:54;100639.97;;;20.47;62.00
46045;BME280;31781;54.094;13.428;2023-07-31T09:04:57;100639.94;;;20.52;61.06
46045;BME280;31781;54.094;13.428;2023-07-31T09:07:00;100640.22;;;20.56;60.36
46045;BME280;31781;54.094;13.428;2023-07-31T09:09:02;100657.34;;;20.63;60.16
46045;BME280;31781;54.094;13.428;2023-07-31T09:11:04;100646.84;;;20.70;60.69
46045;BME280;31781;54.094;13.428;2023-07-31T09:13:06;100653.22;;;20.75;60.46
46045;BME280;31781;54.094;13.428;2023-07-31T09:15:11;100652.91;;;20.82;60.17
46045;BME280;31781;54.094;13.428;2023-07-31T09:17:33;100646.25;;;20.93;59.33
46045;BME280;31781;54.094;13.428;2023-07-31T09:19:36;100647.63;;;21.01;58.89
46045;BME280;31781;54.094;13.428;2023-07-31T09:21:47;100646.53;;;21.12;59.65
46045;BME280;31781;54.094;13.428;2023-07-31T09:23:49;100646.78;;;21.20;58.17
46045;BME280;31781;54.094;13.428;2023-07-31T09:25:51;100642.31;;;21.29;58.02
46045;BME280;31781;54.094;13.428;2023-07-31T09:27:54;100642.25;;;21.40;57.63
46045;BME280;31781;54.094;13.428;2023-07-31T09:29:58;100636.97;;;21.53;58.48
46045;BME280;31781;54.094;13.428;2023-07-31T09:32:00;100631.38;;;21.63;58.45
46045;BME280;31781;54.094;13.428;2023-07-31T09:34:02;100618.88;;;21.71;56.88
46045;BME280;31781;54.094;13.428;2023-07-31T09:36:05;100630.44;;;21.78;55.54
46045;BME280;31781;54.094;13.428;2023-07-31T09:38:09;100636.22;;;21.87;55.54
46045;BME280;31781;54.094;13.428;2023-07-31T09:40:24;100632.59;;;21.96;57.53
46045;BME280;31781;54.094;13.428;2023-07-31T09:42:26;100627.84;;;22.02;55.87
46045;BME280;31781;54.094;13.428;2023-07-31T09:44:38;100623.91;;;22.08;56.49
46045;BME280;31781;54.094;13.428;2023-07-31T09:46:40;100624.16;;;22.16;55.96
46045;BME280;31781;54.094;13.428;2023-07-31T09:48:42;100632.13;;;22.23;54.72
46045;BME280;31781;54.094;13.428;2023-07-31T09:50:46;100620.69;;;22.29;54.30
46045;BME280;31781;54.094;13.428;2023-07-31T09:52:50;100616.78;;;22.36;54.87
46045;BME280;31781;54.094;13.428;2023-07-31T09:54:52;100615.06;;;22.40;54.51
46045;BME280;31781;54.094;13.428;2023-07-31T09:56:54;100619.75;;;22.44;54.70
46045;BME280;31781;54.094;13.428;2023-07-31T09:58:56;100622.75;;;22.48;53.04
46045;BME280;31781;54.094;13.428;2023-07-31T10:00:58;100621.38;;;22.50;53.91
46045;BME280;31781;54.094;13.428;2023-07-31T10:03:01;100622.19;;;22.51;53.42
46045;BME280;31781;54.094;13.428;2023-07-31T10:05:06;100615.53;;;22.52;53.49
46045;BME280;31781;54.094;13.428;2023-07-31T10:07:08;100618.28;;;22.52;52.86
46045;BME280;31781;54.094;13.428;2023-07-31T10:09:12;100609.97;;;22.52;53.46
46045;BME280;31781;54.094;13.428;2023-07-31T10:11:17;100614.16;;;22.49;52.01
46045;BME280;31781;54.094;13.428;2023-07-31T10:13:19;100613.34;;;22.49;52.71
46045;BME280;31781;54.094;13.428;2023-07-31T10:15:21;100621.13;;;22.47;52.83
46045;BME280;31781;54.094;13.428;2023-07-31T10:17:25;100610.31;;;22.45;51.80
46045;BME280;31781;54.094;13.428;2023-07-31T10:19:27;100609.75;;;22.43;52.41
46045;BME280;31781;54.094;13.428;2023-07-31T10:21:31;100604.53;;;22.42;52.74
46045;BME280;31781;54.094;13.428;2023-07-31T10:23:33;100605.94;;;22.39;54.20
46045;BME280;31781;54.094;13.428;2023-07-31T10:25:37;100605.38;;;22.37;53.35
46045;BME280;31781;54.094;13.428;2023-07-31T10:27:39;100609.03;;;22.32;53.89
46045;BME280;31781;54.094;13.428;2023-07-31T10:29:43;100604.63;;;22.31;55.42
46045;BME280;31781;54.094;13.428;2023-07-31T10:31:46;100609.34;;;22.31;56.13
46045;BME280;31781;54.094;13.428;2023-07-31T10:33:48;100598.53;;;22.29;55.86
46045;BME280;31781;54.094;13.428;2023-07-31T10:35:50;100600.72;;;22.32;57.42